Wetterdaten: Woche 23.08.04 - 29.08.04 (KW35)
Datum Zeit Temperatur Luftfeuchte Luftdruck Regenmenge Wind Richtung Taupunkt Windchill
23.08.2004 00:00 13.7 C 88 % 1020.3 hPa 0.0 l/m 0.0 km/h (0 Bft) N 11.7 C 13.7 C
23.08.2004 01:00 12.5 C 92 % 1020.4 hPa 0.0 l/m 0.0 km/h (0 Bft) N 11.3 C 12.5 C
23.08.2004 02:00 11.6 C 96 % 1020.6 hPa 0.0 l/m 0.8 km/h (0 Bft) W-NW 10.9 C 11.6 C
23.08.2004 03:00 11.0 C 98 % 1020.6 hPa 0.0 l/m 0.5 km/h (0 Bft) W-NW 10.7 C 11.0 C
23.08.2004 04:00 10.6 C 99 % 1020.7 hPa 0.0 l/m 0.0 km/h (0 Bft) N 10.5 C 10.6 C
23.08.2004 05:00 10.5 C 100 % 1020.7 hPa 0.0 l/m 0.0 km/h (0 Bft) N 10.5 C 10.5 C
23.08.2004 06:00 10.8 C 100 % 1020.7 hPa 0.0 l/m 0.0 km/h (0 Bft) N 10.8 C 10.8 C
23.08.2004 07:00 12.0 C 99 % 1020.5 hPa 0.0 l/m 0.0 km/h (0 Bft) N 11.9 C 12.0 C
23.08.2004 08:00 13.1 C 88 % 1021.1 hPa 0.0 l/m 0.0 km/h (0 Bft) N 11.2 C 13.1 C
23.08.2004 09:00 14.6 C 82 % 1021.2 hPa 0.0 l/m 0.0 km/h (0 Bft) N 11.4 C 14.6 C
23.08.2004 10:00 16.4 C 71 % 1020.9 hPa 0.0 l/m 0.6 km/h (0 Bft) S-SO 11.1 C 16.4 C
23.08.2004 11:00 19.5 C 65 % 1020.5 hPa 0.0 l/m 5.1 km/h (1 Bft) O-SO 12.6 C 19.5 C
23.08.2004 12:00 21.9 C 55 % 1019.2 hPa 0.0 l/m 8.9 km/h (2 Bft) O-SO 12.4 C 21.9 C
23.08.2004 13:00 24.1 C 46 % 1018.9 hPa 0.0 l/m 7.1 km/h (2 Bft) O-SO 11.6 C 24.1 C
23.08.2004 14:00 25.8 C 38 % 1017.7 hPa 0.0 l/m 6.0 km/h (2 Bft) W-NW 10.4 C 25.8 C
23.08.2004 15:00 27.2 C 38 % 1017.2 hPa 0.0 l/m 5.7 km/h (1 Bft) O-SO 11.6 C 27.2 C
23.08.2004 16:00 27.9 C 35 % 1016.3 hPa 0.0 l/m 6.4 km/h (2 Bft) W-NW 11.0 C 27.9 C
23.08.2004 17:00 28.2 C 34 % 1015.4 hPa 0.0 l/m 1.0 km/h (0 Bft) O-SO 10.6 C 28.2 C
23.08.2004 18:00 26.8 C 40 % 1015.0 hPa 0.0 l/m 0.2 km/h (0 Bft) SW 12.0 C 26.8 C
23.08.2004 19:00 24.1 C 54 % 1015.6 hPa 0.0 l/m 0.0 km/h (0 Bft) N 14.2 C 24.1 C
23.08.2004 20:00 20.9 C 68 % 1016.2 hPa 0.0 l/m 4.5 km/h (1 Bft) O 14.8 C 20.9 C
23.08.2004 21:00 20.3 C 74 % 1016.3 hPa 0.0 l/m 2.2 km/h (1 Bft) O-SO 15.4 C 20.3 C
23.08.2004 22:00 18.5 C 83 % 1016.6 hPa 0.0 l/m 2.0 km/h (1 Bft) O 15.6 C 18.5 C
23.08.2004 23:00 17.3 C 88 % 1016.9 hPa 0.0 l/m 0.0 km/h (0 Bft) N 15.3 C 17.3 C
24.08.2004 00:00 16.4 C 91 % 1017.4 hPa 0.0 l/m 0.0 km/h (0 Bft) N 14.9 C 16.4 C
24.08.2004 01:00 17.0 C 92 % 1017.8 hPa 0.9 l/m 3.8 km/h (1 Bft) O-SO 15.6 C 17.0 C
24.08.2004 02:00 17.4 C 97 % 1017.7 hPa 2.2 l/m 5.0 km/h (1 Bft) O-SO 16.8 C 17.4 C
24.08.2004 03:00 17.4 C 99 % 1017.8 hPa 3.4 l/m 7.0 km/h (2 Bft) SO 17.3 C 17.4 C
24.08.2004 04:00 17.0 C 100 % 1017.6 hPa 3.4 l/m 5.6 km/h (1 Bft) O-SO 16.9 C 17.0 C
24.08.2004 05:00 16.8 C 100 % 1016.7 hPa 0.3 l/m 2.3 km/h (1 Bft) O 16.8 C 16.8 C
24.08.2004 06:00 16.6 C 100 % 1016.8 hPa 0.0 l/m 0.6 km/h (0 Bft) SO 16.6 C 16.6 C
24.08.2004 07:00 16.5 C 100 % 1016.8 hPa 0.0 l/m 4.6 km/h (1 Bft) O-SO 16.5 C 16.5 C
24.08.2004 08:00 16.9 C 100 % 1016.7 hPa 0.9 l/m 0.4 km/h (0 Bft) SO 16.9 C 16.9 C
24.08.2004 09:00 17.1 C 100 % 1016.2 hPa 1.9 l/m 3.6 km/h (1 Bft) O-SO 17.1 C 17.1 C
24.08.2004 10:00 17.5 C 100 % 1015.7 hPa 0.6 l/m 0.8 km/h (0 Bft) SO 17.5 C 17.5 C
24.08.2004 11:00 17.5 C 100 % 1015.8 hPa 1.9 l/m 2.1 km/h (1 Bft) O-SO 17.5 C 17.5 C
24.08.2004 12:00 17.8 C 100 % 1015.6 hPa 0.6 l/m 0.6 km/h (0 Bft) SO 17.8 C 17.8 C
24.08.2004 13:00 18.3 C 98 % 1015.5 hPa 2.2 l/m 0.9 km/h (0 Bft) SO 17.9 C 18.3 C
24.08.2004 14:00 18.9 C 89 % 1015.4 hPa 0.0 l/m 10.4 km/h (2 Bft) W-NW 17.0 C 18.9 C
24.08.2004 15:00 19.8 C 71 % 1015.9 hPa 0.0 l/m 24.3 km/h (4 Bft) W-NW 14.4 C 19.8 C
24.08.2004 16:00 21.0 C 61 % 1015.2 hPa 0.0 l/m 26.1 km/h (4 Bft) W-NW 13.2 C 21.0 C
24.08.2004 17:00 20.3 C 60 % 1016.3 hPa 0.0 l/m 15.8 km/h (3 Bft) W-NW 12.1 C 20.3 C
24.08.2004 18:00 19.1 C 63 % 1016.4 hPa 0.0 l/m 19.3 km/h (3 Bft) W-NW 11.8 C 19.1 C
24.08.2004 19:00 17.7 C 74 % 1016.6 hPa 0.0 l/m 17.7 km/h (3 Bft) W-NW 12.8 C 17.7 C
24.08.2004 20:00 16.7 C 82 % 1017.1 hPa 0.0 l/m 2.8 km/h (1 Bft) W-SW 13.5 C 16.7 C
24.08.2004 21:00 16.0 C 87 % 1017.9 hPa 0.0 l/m 1.0 km/h (0 Bft) SO 13.9 C 16.0 C
24.08.2004 22:00 15.7 C 89 % 1017.9 hPa 0.0 l/m 0.4 km/h (0 Bft) SW 14.0 C 15.7 C
24.08.2004 23:00 15.5 C 91 % 1018.0 hPa 0.0 l/m 0.6 km/h (0 Bft) W-SW 14.0 C 15.5 C
25.08.2004 00:00 15.5 C 91 % 1017.9 hPa 0.0 l/m 0.9 km/h (0 Bft) SO 14.1 C 15.5 C
25.08.2004 01:00 15.6 C 91 % 1017.9 hPa 0.0 l/m 0.0 km/h (0 Bft) N 14.2 C 15.6 C
25.08.2004 02:00 15.7 C 93 % 1017.5 hPa 0.0 l/m 0.0 km/h (0 Bft) N 14.5 C 15.7 C
25.08.2004 03:00 15.6 C 95 % 1016.9 hPa 0.0 l/m 0.0 km/h (0 Bft) N 14.7 C 15.6 C
25.08.2004 04:00 15.2 C 94 % 1016.9 hPa 0.0 l/m 0.0 km/h (0 Bft) N 14.3 C 15.2 C
25.08.2004 05:00 14.5 C 96 % 1016.4 hPa 0.0 l/m 1.3 km/h (1 Bft) W-NW 13.9 C 14.5 C
25.08.2004 06:00 14.6 C 80 % 1016.1 hPa 0.0 l/m 6.8 km/h (2 Bft) W-NW 11.1 C 14.6 C
25.08.2004 07:00 14.9 C 79 % 1016.0 hPa 0.0 l/m 1.3 km/h (1 Bft) W-NW 11.3 C 14.9 C
25.08.2004 08:00 16.0 C 66 % 1015.8 hPa 0.0 l/m 11.0 km/h (2 Bft) W-NW 9.7 C 16.0 C
25.08.2004 09:00 16.1 C 65 % 1015.8 hPa 0.0 l/m 13.1 km/h (3 Bft) W-NW 9.4 C 16.1 C
25.08.2004 10:00 16.7 C 63 % 1015.7 hPa 0.0 l/m 13.4 km/h (3 Bft) W-NW 9.5 C 16.7 C
25.08.2004 11:00 18.2 C 58 % 1015.5 hPa 0.0 l/m 13.2 km/h (3 Bft) W-NW 9.6 C 18.2 C
25.08.2004 12:00 19.8 C 55 % 1014.4 hPa 0.0 l/m 6.0 km/h (2 Bft) W 10.4 C 19.8 C
25.08.2004 13:00 20.5 C 54 % 1013.4 hPa 0.0 l/m 5.6 km/h (1 Bft) W-NW 10.8 C 20.5 C
25.08.2004 14:00 20.9 C 50 % 1013.1 hPa 0.0 l/m 7.5 km/h (2 Bft) W-NW 10.0 C 20.9 C
25.08.2004 15:00 20.3 C 51 % 1013.2 hPa 0.0 l/m 12.4 km/h (3 Bft) W-NW 9.7 C 20.3 C
25.08.2004 16:00 20.7 C 49 % 1013.0 hPa 0.0 l/m 24.4 km/h (4 Bft) W-NW 9.5 C 20.7 C
25.08.2004 17:00 19.9 C 58 % 1013.1 hPa 0.0 l/m 19.9 km/h (4 Bft) W-NW 11.2 C 19.9 C
25.08.2004 18:00 19.6 C 58 % 1012.2 hPa 0.0 l/m 17.1 km/h (3 Bft) W-NW 11.2 C 19.6 C
25.08.2004 19:00 18.5 C 63 % 1012.8 hPa 0.0 l/m 24.7 km/h (4 Bft) W-NW 11.2 C 18.5 C
25.08.2004 20:00 17.5 C 64 % 1013.5 hPa 0.0 l/m 25.3 km/h (4 Bft) W-NW 10.5 C 17.5 C
25.08.2004 21:00 16.5 C 67 % 1013.7 hPa 0.0 l/m 19.3 km/h (3 Bft) W-NW 10.3 C 16.5 C
25.08.2004 22:00 15.8 C 71 % 1013.8 hPa 0.0 l/m 11.2 km/h (2 Bft) W-NW 10.5 C 15.8 C
25.08.2004 23:00 14.9 C 81 % 1014.0 hPa 0.9 l/m 1.0 km/h (0 Bft) W 11.7 C 14.9 C
26.08.2004 00:00 13.7 C 95 % 1015.1 hPa 0.0 l/m 1.5 km/h (1 Bft) O-SO 12.9 C 13.7 C
26.08.2004 01:00 13.8 C 96 % 1015.0 hPa 0.0 l/m 3.7 km/h (1 Bft) O-SO 13.3 C 13.8 C
26.08.2004 02:00 13.8 C 97 % 1014.1 hPa 0.0 l/m 1.4 km/h (1 Bft) O 13.3 C 13.8 C
26.08.2004 03:00 13.5 C 99 % 1014.1 hPa 0.6 l/m 6.3 km/h (2 Bft) W-NW 13.3 C 13.5 C
26.08.2004 04:00 13.2 C 98 % 1014.1 hPa 0.0 l/m 15.3 km/h (3 Bft) W-NW 12.9 C 13.2 C
26.08.2004 05:00 13.6 C 94 % 1014.0 hPa 0.0 l/m 20.8 km/h (4 Bft) W-NW 12.7 C 13.6 C
26.08.2004 06:00 13.4 C 94 % 1014.9 hPa 0.3 l/m 18.3 km/h (3 Bft) W-NW 12.4 C 13.4 C
26.08.2004 07:00 13.4 C 96 % 1015.4 hPa 0.3 l/m 16.4 km/h (3 Bft) W-NW 12.7 C 13.4 C
26.08.2004 08:00 14.4 C 85 % 1016.0 hPa 0.0 l/m 23.9 km/h (4 Bft) W-NW 11.9 C 14.4 C
26.08.2004 09:00 14.7 C 83 % 1016.8 hPa 0.0 l/m 19.3 km/h (3 Bft) W-NW 11.8 C 14.7 C
26.08.2004 10:00 14.5 C 87 % 1017.6 hPa 0.9 l/m 19.2 km/h (3 Bft) W-NW 12.3 C 14.5 C
26.08.2004 11:00 14.9 C 84 % 1018.0 hPa 0.3 l/m 18.6 km/h (3 Bft) W-NW 12.2 C 14.9 C
26.08.2004 12:00 14.4 C 91 % 1018.1 hPa 0.9 l/m 22.1 km/h (4 Bft) NW 12.9 C 14.4 C
26.08.2004 13:00 14.5 C 91 % 1018.9 hPa 0.6 l/m 11.3 km/h (2 Bft) W-NW 13.1 C 14.5 C
26.08.2004 14:00 14.5 C 93 % 1019.1 hPa 1.9 l/m 10.0 km/h (2 Bft) NW 13.4 C 14.5 C
26.08.2004 15:00 14.9 C 93 % 1019.1 hPa 2.5 l/m 7.9 km/h (2 Bft) W-NW 13.7 C 14.9 C
26.08.2004 16:00 15.0 C 96 % 1019.1 hPa 2.2 l/m 0.6 km/h (0 Bft) O 14.3 C 15.0 C
26.08.2004 17:00 15.5 C 95 % 1019.1 hPa 0.6 l/m 1.0 km/h (0 Bft) SO 14.7 C 15.5 C
26.08.2004 18:00 14.4 C 94 % 1020.2 hPa 1.2 l/m 4.6 km/h (1 Bft) O-SO 13.4 C 14.4 C
26.08.2004 19:00 14.8 C 96 % 1020.1 hPa 0.3 l/m 1.0 km/h (0 Bft) O-SO 14.1 C 14.8 C
26.08.2004 20:00 13.8 C 98 % 1020.4 hPa 0.0 l/m 0.0 km/h (0 Bft) N 13.4 C 13.8 C
26.08.2004 21:00 13.0 C 99 % 1021.4 hPa 0.0 l/m 1.2 km/h (1 Bft) SO 12.8 C 13.0 C
26.08.2004 22:00 13.5 C 100 % 1021.5 hPa 0.3 l/m 3.1 km/h (1 Bft) SO 13.5 C 13.5 C
26.08.2004 23:00 13.6 C 100 % 1022.4 hPa 0.3 l/m 5.4 km/h (1 Bft) SO 13.6 C 13.6 C
27.08.2004 00:00 13.5 C 100 % 1022.3 hPa 0.0 l/m 5.4 km/h (1 Bft) SO 13.5 C 13.5 C
27.08.2004 01:00 13.4 C 100 % 1021.5 hPa 0.0 l/m 2.5 km/h (1 Bft) SO 13.4 C 13.4 C
27.08.2004 02:00 13.3 C 100 % 1021.4 hPa 0.3 l/m 1.4 km/h (1 Bft) SO 13.3 C 13.3 C
27.08.2004 03:00 13.2 C 100 % 1021.4 hPa 0.0 l/m 1.6 km/h (1 Bft) SO 13.2 C 13.2 C
27.08.2004 04:00 13.1 C 100 % 1021.4 hPa 0.0 l/m 2.4 km/h (1 Bft) O-SO 13.1 C 13.1 C
27.08.2004 05:00 12.8 C 100 % 1020.5 hPa 0.0 l/m 7.6 km/h (2 Bft) SO 12.8 C 12.8 C
27.08.2004 06:00 12.9 C 100 % 1020.4 hPa 0.0 l/m 2.3 km/h (1 Bft) SO 12.9 C 12.9 C
27.08.2004 07:00 13.6 C 100 % 1021.2 hPa 0.0 l/m 0.9 km/h (0 Bft) O-SO 13.6 C 13.6 C
27.08.2004 08:00 14.2 C 100 % 1020.9 hPa 0.0 l/m 2.6 km/h (1 Bft) O-SO 14.2 C 14.2 C
27.08.2004 09:00 15.1 C 95 % 1020.6 hPa 0.0 l/m 1.2 km/h (1 Bft) S-SO 14.2 C 15.1 C
27.08.2004 10:00 16.5 C 85 % 1019.9 hPa 0.0 l/m 4.2 km/h (1 Bft) O-SO 13.9 C 16.5 C
27.08.2004 11:00 17.5 C 78 % 1019.0 hPa 0.0 l/m 3.4 km/h (1 Bft) O-SO 13.6 C 17.5 C
27.08.2004 12:00 18.9 C 68 % 1018.5 hPa 0.0 l/m 1.0 km/h (0 Bft) W-NW 12.7 C 18.9 C
27.08.2004 13:00 20.4 C 58 % 1017.4 hPa 0.0 l/m 2.4 km/h (1 Bft) W-NW 11.8 C 20.4 C
27.08.2004 14:00 21.6 C 53 % 1016.5 hPa 0.0 l/m 5.2 km/h (1 Bft) W 11.5 C 21.6 C
27.08.2004 15:00 23.2 C 47 % 1015.5 hPa 0.0 l/m 3.0 km/h (1 Bft) W-NW 11.2 C 23.2 C
27.08.2004 16:00 23.4 C 48 % 1014.8 hPa 0.0 l/m 10.6 km/h (2 Bft) W-NW 11.9 C 23.4 C
27.08.2004 17:00 22.7 C 52 % 1014.9 hPa 0.0 l/m 12.3 km/h (3 Bft) W-NW 12.2 C 22.7 C
27.08.2004 18:00 22.0 C 55 % 1015.0 hPa 0.0 l/m 10.7 km/h (2 Bft) W-NW 12.6 C 22.0 C
27.08.2004 19:00 19.9 C 64 % 1015.3 hPa 0.0 l/m 6.1 km/h (2 Bft) W-NW 12.7 C 19.9 C
27.08.2004 20:00 17.4 C 77 % 1015.6 hPa 0.0 l/m 1.3 km/h (1 Bft) S-SO 13.2 C 17.4 C
27.08.2004 21:00 15.5 C 86 % 1015.9 hPa 0.0 l/m 0.6 km/h (0 Bft) SO 13.2 C 15.5 C
27.08.2004 22:00 14.2 C 91 % 1016.0 hPa 0.0 l/m 0.9 km/h (0 Bft) SO 12.8 C 14.2 C
27.08.2004 23:00 13.2 C 96 % 1016.8 hPa 0.0 l/m 1.9 km/h (1 Bft) SO 12.5 C 13.2 C
28.08.2004 00:00 12.5 C 98 % 1017.3 hPa 0.0 l/m 0.7 km/h (0 Bft) SO 12.2 C 12.5 C
28.08.2004 01:00 11.9 C 99 % 1017.4 hPa 0.0 l/m 0.0 km/h (0 Bft) N 11.7 C 11.9 C
28.08.2004 02:00 11.4 C 100 % 1017.5 hPa 0.0 l/m 0.0 km/h (0 Bft) N 11.3 C 11.4 C
28.08.2004 03:00 11.0 C 100 % 1017.5 hPa 0.0 l/m 0.0 km/h (0 Bft) N 11.0 C 11.0 C
28.08.2004 04:00 11.0 C 100 % 1017.5 hPa 0.0 l/m 0.4 km/h (0 Bft) SO 11.0 C 11.0 C
28.08.2004 05:00 10.6 C 100 % 1017.1 hPa 0.0 l/m 1.1 km/h (1 Bft) SO 10.6 C 10.6 C
28.08.2004 06:00 10.6 C 100 % 1017.5 hPa 0.0 l/m 1.2 km/h (1 Bft) SO 10.6 C 10.6 C
28.08.2004 07:00 11.1 C 100 % 1017.5 hPa 0.0 l/m 0.0 km/h (0 Bft) N 11.1 C 11.1 C
28.08.2004 08:00 12.7 C 100 % 1017.3 hPa 0.0 l/m 0.0 km/h (0 Bft) N 12.7 C 12.7 C
28.08.2004 09:00 15.1 C 96 % 1017.0 hPa 0.0 l/m 0.6 km/h (0 Bft) SO 14.4 C 15.1 C
28.08.2004 10:00 17.8 C 70 % 1016.6 hPa 0.0 l/m 10.2 km/h (2 Bft) W-NW 12.1 C 17.8 C
28.08.2004 11:00 19.5 C 59 % 1015.8 hPa 0.0 l/m 15.9 km/h (3 Bft) W-NW 11.3 C 19.5 C
28.08.2004 12:00 21.0 C 55 % 1015.1 hPa 0.0 l/m 11.4 km/h (2 Bft) W-NW 11.7 C 21.0 C
28.08.2004 13:00 22.1 C 51 % 1015.0 hPa 0.0 l/m 15.6 km/h (3 Bft) W-NW 11.3 C 22.1 C
28.08.2004 14:00 22.9 C 48 % 1014.3 hPa 0.0 l/m 16.8 km/h (3 Bft) W-NW 11.2 C 22.9 C
28.08.2004 15:00 24.0 C 47 % 1013.7 hPa 0.0 l/m 15.5 km/h (3 Bft) W-NW 12.0 C 24.0 C
28.08.2004 16:00 24.1 C 50 % 1013.7 hPa 0.0 l/m 16.9 km/h (3 Bft) W-NW 12.9 C 24.1 C
28.08.2004 17:00 23.7 C 53 % 1013.8 hPa 0.0 l/m 19.8 km/h (4 Bft) W-NW 13.4 C 23.7 C
28.08.2004 18:00 22.6 C 55 % 1013.9 hPa 0.0 l/m 21.4 km/h (4 Bft) W-NW 13.1 C 22.6 C
28.08.2004 19:00 20.9 C 61 % 1014.4 hPa 0.0 l/m 20.3 km/h (4 Bft) W-NW 13.1 C 20.9 C
28.08.2004 20:00 18.7 C 69 % 1015.4 hPa 0.0 l/m 8.3 km/h (2 Bft) W-NW 12.7 C 18.7 C
28.08.2004 21:00 17.3 C 77 % 1016.7 hPa 0.0 l/m 5.7 km/h (1 Bft) O-SO 13.3 C 17.3 C
28.08.2004 22:00 16.6 C 78 % 1016.8 hPa 0.0 l/m 0.5 km/h (0 Bft) O-SO 12.8 C 16.6 C
28.08.2004 23:00 15.7 C 85 % 1016.9 hPa 0.0 l/m 2.4 km/h (1 Bft) O-SO 13.1 C 15.7 C
29.08.2004 00:00 14.9 C 90 % 1017.0 hPa 0.0 l/m 0.1 km/h (0 Bft) O 13.3 C 14.9 C
29.08.2004 01:00 14.2 C 93 % 1017.1 hPa 0.0 l/m 0.1 km/h (0 Bft) N 13.1 C 14.2 C
29.08.2004 02:00 13.6 C 96 % 1017.4 hPa 0.0 l/m 0.5 km/h (0 Bft) O 12.9 C 13.6 C
29.08.2004 03:00 13.7 C 98 % 1017.6 hPa 0.0 l/m 0.5 km/h (0 Bft) O 13.3 C 13.7 C
29.08.2004 04:00 13.6 C 98 % 1017.4 hPa 0.0 l/m 1.2 km/h (1 Bft) O 13.3 C 13.6 C
29.08.2004 05:00 13.2 C 99 % 1017.2 hPa 0.0 l/m 0.0 km/h (0 Bft) N 13.0 C 13.2 C
29.08.2004 06:00 13.6 C 100 % 1017.2 hPa 0.0 l/m 0.0 km/h (0 Bft) N 13.5 C 13.6 C
29.08.2004 07:00 14.4 C 100 % 1017.4 hPa 0.0 l/m 0.0 km/h (0 Bft) N 14.4 C 14.4 C
29.08.2004 08:00 15.5 C 94 % 1017.9 hPa 0.0 l/m 0.0 km/h (0 Bft) N 14.5 C 15.5 C
29.08.2004 09:00 16.4 C 87 % 1017.8 hPa 0.0 l/m 0.4 km/h (0 Bft) O-SO 14.2 C 16.4 C
29.08.2004 10:00 17.0 C 87 % 1018.5 hPa 0.9 l/m 0.0 km/h (0 Bft) N 14.8 C 17.0 C
29.08.2004 11:00 18.0 C 88 % 1018.0 hPa 0.0 l/m 0.4 km/h (0 Bft) S 16.0 C 18.0 C
29.08.2004 12:00 19.3 C 79 % 1017.4 hPa 0.0 l/m 1.2 km/h (1 Bft) W-NW 15.5 C 19.3 C
29.08.2004 13:00 20.7 C 70 % 1016.7 hPa 0.0 l/m 1.0 km/h (0 Bft) S-SO 15.0 C 20.7 C
29.08.2004 14:00 20.2 C 70 % 1016.6 hPa 2.8 l/m 12.1 km/h (2 Bft) NW 14.4 C 20.2 C
29.08.2004 15:00 17.7 C 89 % 1017.4 hPa 0.6 l/m 2.0 km/h (1 Bft) O-SO 15.9 C 17.7 C
29.08.2004 16:00 20.4 C 79 % 1016.3 hPa 0.0 l/m 12.1 km/h (2 Bft) W-NW 16.5 C 20.4 C
29.08.2004 17:00 20.7 C 71 % 1016.2 hPa 0.0 l/m 15.9 km/h (3 Bft) W-NW 15.2 C 20.7 C
29.08.2004 18:00 19.8 C 78 % 1015.8 hPa 0.3 l/m 5.1 km/h (1 Bft) W-NW 15.8 C 19.8 C
29.08.2004 19:00 18.0 C 90 % 1015.8 hPa 0.0 l/m 1.8 km/h (1 Bft) W-NW 16.3 C 18.0 C
29.08.2004 20:00 17.2 C 93 % 1016.7 hPa 0.0 l/m 2.8 km/h (1 Bft) SO 16.1 C 17.2 C
29.08.2004 21:00 16.5 C 96 % 1017.8 hPa 0.0 l/m 0.7 km/h (0 Bft) SO 15.9 C 16.5 C
29.08.2004 22:00 15.5 C 98 % 1017.9 hPa 0.0 l/m 0.4 km/h (0 Bft) SO 15.2 C 15.5 C
29.08.2004 23:00 14.6 C 100 % 1018.1 hPa 0.0 l/m 0.8 km/h (0 Bft) SO 14.5 C 14.6 C
Min-Datum _ 23.08.04 23.08.04 25.08.04 - 23.08.04 - 23.08.04 23.08.04
_ Min-Zeit 05:52 17:13 16:28 - 00:00 - 17:13 05:52
Minimum _ 10.3 C 27 % 1012.1 hPa - 0.0 km/h (0 Bft) - 7.5 C 10.3 C
Max-Datum _ 23.08.04 23.08.04 27.08.04 24.08.04 29.08.04 - 24.08.04 23.08.04
_ Max-Zeit 17:43 04:49 01:12 02:00 14:51 - 13:55 17:43
Maximum _ 28.9 C 100 % 1022.4 hPa 3.4 l/m 46.7 km/h
NW (6 Bft)
- 18.5 C 28.9 C
Durchschnitt _ 16.8 C 82 % 1017.1 hPa #37.5 l/m 6.0 km/h (2 Bft) W-NW 13.1 C 16.8 C

Durchschnitt Minimum Temp.16.1 C
Durchschnitt Maximum Temp.17.5 C
© Kaiko 2004